sensor_id;sensor_type;location;lat;lon;timestamp;pressure;altitude;pressure_sealevel;temperature;humidity
16120;BME280;12670;53.502;10.252;2023-04-20T00:02:02;101933.28;;;8.54;77.48
16120;BME280;12670;53.502;10.252;2023-04-20T00:05:06;101938.81;;;8.39;73.49
16120;BME280;12670;53.502;10.252;2023-04-20T00:08:09;101940.25;;;8.60;75.36
16120;BME280;12670;53.502;10.252;2023-04-20T00:11:13;101944.50;;;8.71;80.26
16120;BME280;12670;53.502;10.252;2023-04-20T00:14:15;101946.25;;;8.74;78.78
16120;BME280;12670;53.502;10.252;2023-04-20T00:17:18;101940.03;;;8.73;81.25
16120;BME280;12670;53.502;10.252;2023-04-20T00:20:21;101940.41;;;8.49;80.05
16120;BME280;12670;53.502;10.252;2023-04-20T00:23:24;101939.38;;;8.59;80.15
16120;BME280;12670;53.502;10.252;2023-04-20T00:26:28;101938.13;;;8.18;83.44
16120;BME280;12670;53.502;10.252;2023-04-20T00:29:31;101934.56;;;8.22;82.97
16120;BME280;12670;53.502;10.252;2023-04-20T00:32:34;101937.84;;;8.43;83.18
16120;BME280;12670;53.502;10.252;2023-04-20T00:35:37;101927.25;;;8.46;84.47
16120;BME280;12670;53.502;10.252;2023-04-20T00:38:39;101927.38;;;8.34;84.67
16120;BME280;12670;53.502;10.252;2023-04-20T00:41:43;101913.78;;;8.63;86.50
16120;BME280;12670;53.502;10.252;2023-04-20T00:44:46;101910.84;;;8.16;88.13
16120;BME280;12670;53.502;10.252;2023-04-20T00:47:50;101894.22;;;8.07;90.86
16120;BME280;12670;53.502;10.252;2023-04-20T00:50:53;101896.91;;;8.05;92.99
16120;BME280;12670;53.502;10.252;2023-04-20T00:53:56;101901.19;;;8.15;93.94
16120;BME280;12670;53.502;10.252;2023-04-20T00:57:01;101899.56;;;8.02;95.27
16120;BME280;12670;53.502;10.252;2023-04-20T01:00:05;101896.19;;;7.91;95.58
16120;BME280;12670;53.502;10.252;2023-04-20T01:03:08;101897.03;;;7.94;95.99
16120;BME280;12670;53.502;10.252;2023-04-20T01:06:12;101899.72;;;7.93;97.11
16120;BME280;12670;53.502;10.252;2023-04-20T01:09:15;101891.03;;;7.82;97.09
16120;BME280;12670;53.502;10.252;2023-04-20T01:12:19;101875.25;;;7.75;97.95
16120;BME280;12670;53.502;10.252;2023-04-20T01:15:22;101877.03;;;7.75;97.35
16120;BME280;12670;53.502;10.252;2023-04-20T01:18:25;101882.22;;;7.83;99.11
16120;BME280;12670;53.502;10.252;2023-04-20T01:21:28;101896.41;;;7.72;100.00
16120;BME280;12670;53.502;10.252;2023-04-20T01:24:32;101887.47;;;7.86;99.58
16120;BME280;12670;53.502;10.252;2023-04-20T01:27:35;101883.16;;;7.77;99.64
16120;BME280;12670;53.502;10.252;2023-04-20T01:30:38;101883.94;;;7.84;99.49
16120;BME280;12670;53.502;10.252;2023-04-20T01:33:40;101878.63;;;7.85;99.89
16120;BME280;12670;53.502;10.252;2023-04-20T01:36:43;101879.63;;;7.78;100.00
16120;BME280;12670;53.502;10.252;2023-04-20T01:39:47;101876.00;;;7.85;100.00
16120;BME280;12670;53.502;10.252;2023-04-20T01:42:50;101877.03;;;7.75;100.00
16120;BME280;12670;53.502;10.252;2023-04-20T01:45:53;101869.88;;;7.83;100.00
16120;BME280;12670;53.502;10.252;2023-04-20T01:48:55;101857.75;;;7.65;100.00
16120;BME280;12670;53.502;10.252;2023-04-20T01:51:58;101855.00;;;7.73;100.00
16120;BME280;12670;53.502;10.252;2023-04-20T01:55:03;101861.16;;;7.73;100.00
16120;BME280;12670;53.502;10.252;2023-04-20T01:58:05;101860.25;;;7.78;100.00
16120;BME280;12670;53.502;10.252;2023-04-20T02:01:08;101858.41;;;7.86;100.00
16120;BME280;12670;53.502;10.252;2023-04-20T02:04:11;101850.41;;;7.92;100.00
16120;BME280;12670;53.502;10.252;2023-04-20T02:07:13;101843.34;;;7.91;100.00
16120;BME280;12670;53.502;10.252;2023-04-20T02:10:17;101824.84;;;7.92;100.00
16120;BME280;12670;53.502;10.252;2023-04-20T02:13:20;101815.25;;;7.84;100.00
16120;BME280;12670;53.502;10.252;2023-04-20T02:16:23;101814.31;;;7.88;100.00
16120;BME280;12670;53.502;10.252;2023-04-20T02:19:26;101815.34;;;7.78;100.00
16120;BME280;12670;53.502;10.252;2023-04-20T02:22:28;101822.44;;;7.74;100.00
16120;BME280;12670;53.502;10.252;2023-04-20T02:25:36;101835.84;;;7.57;100.00
16120;BME280;12670;53.502;10.252;2023-04-20T02:28:39;101822.28;;;7.85;100.00
16120;BME280;12670;53.502;10.252;2023-04-20T02:31:42;101819.59;;;7.89;100.00
16120;BME280;12670;53.502;10.252;2023-04-20T02:34:45;101812.59;;;7.85;99.81
16120;BME280;12670;53.502;10.252;2023-04-20T02:37:47;101820.63;;;7.78;98.49
16120;BME280;12670;53.502;10.252;2023-04-20T02:40:51;101806.34;;;7.91;100.00
16120;BME280;12670;53.502;10.252;2023-04-20T02:43:54;101809.78;;;7.99;99.99
16120;BME280;12670;53.502;10.252;2023-04-20T02:46:57;101817.81;;;7.90;99.29
16120;BME280;12670;53.502;10.252;2023-04-20T02:49:59;101818.63;;;7.95;98.84
16120;BME280;12670;53.502;10.252;2023-04-20T02:53:02;101820.13;;;8.13;98.71
16120;BME280;12670;53.502;10.252;2023-04-20T02:56:06;101818.56;;;7.99;98.27
16120;BME280;12670;53.502;10.252;2023-04-20T02:59:09;101822.25;;;7.88;99.08
16120;BME280;12670;53.502;10.252;2023-04-20T03:02:12;101818.69;;;7.92;99.67
16120;BME280;12670;53.502;10.252;2023-04-20T03:05:15;101824.75;;;7.97;99.10
16120;BME280;12670;53.502;10.252;2023-04-20T03:08:18;101820.28;;;8.02;98.30
16120;BME280;12670;53.502;10.252;2023-04-20T03:11:22;101826.44;;;8.04;97.38
16120;BME280;12670;53.502;10.252;2023-04-20T03:14:25;101823.72;;;8.10;97.00
16120;BME280;12670;53.502;10.252;2023-04-20T03:17:28;101814.75;;;8.19;98.83
16120;BME280;12670;53.502;10.252;2023-04-20T03:20:31;101809.78;;;7.99;96.17
16120;BME280;12670;53.502;10.252;2023-04-20T03:23:33;101815.03;;;8.00;99.34
16120;BME280;12670;53.502;10.252;2023-04-20T03:26:37;101813.06;;;8.13;98.69
16120;BME280;12670;53.502;10.252;2023-04-20T03:29:40;101812.28;;;8.07;96.78
16120;BME280;12670;53.502;10.252;2023-04-20T03:32:43;101820.28;;;8.02;96.84
16120;BME280;12670;53.502;10.252;2023-04-20T03:35:46;101821.16;;;8.02;97.06
16120;BME280;12670;53.502;10.252;2023-04-20T03:38:48;101815.69;;;8.16;98.87
16120;BME280;12670;53.502;10.252;2023-04-20T03:41:52;101820.22;;;8.07;98.98
16120;BME280;12670;53.502;10.252;2023-04-20T03:44:55;101816.75;;;8.03;99.43
16120;BME280;12670;53.502;10.252;2023-04-20T03:47:58;101815.06;;;7.99;97.59
16120;BME280;12670;53.502;10.252;2023-04-20T03:51:00;101809.22;;;7.72;99.94
16120;BME280;12670;53.502;10.252;2023-04-20T03:54:03;101812.59;;;7.85;100.00
16120;BME280;12670;53.502;10.252;2023-04-20T03:57:08;101802.00;;;7.85;100.00
16120;BME280;12670;53.502;10.252;2023-04-20T04:00:11;101809.09;;;7.83;100.00
16120;BME280;12670;53.502;10.252;2023-04-20T04:03:14;101799.53;;;7.74;100.00
16120;BME280;12670;53.502;10.252;2023-04-20T04:06:17;101804.75;;;7.79;100.00
16120;BME280;12670;53.502;10.252;2023-04-20T04:09:20;101798.09;;;7.49;100.00
16120;BME280;12670;53.502;10.252;2023-04-20T04:12:24;101802.44;;;7.53;100.00
16120;BME280;12670;53.502;10.252;2023-04-20T04:15:27;101801.69;;;7.42;100.00
16120;BME280;12670;53.502;10.252;2023-04-20T04:18:29;101805.00;;;7.59;100.00
16120;BME280;12670;53.502;10.252;2023-04-20T04:21:33;101817.38;;;7.56;100.00
16120;BME280;12670;53.502;10.252;2023-04-20T04:24:35;101819.22;;;7.49;100.00
16120;BME280;12670;53.502;10.252;2023-04-20T04:27:40;101815.25;;;7.11;100.00
16120;BME280;12670;53.502;10.252;2023-04-20T04:30:43;101808.88;;;7.29;100.00
16120;BME280;12670;53.502;10.252;2023-04-20T04:33:46;101809.09;;;7.09;100.00
16120;BME280;12670;53.502;10.252;2023-04-20T04:36:49;101806.47;;;7.08;100.00
16120;BME280;12670;53.502;10.252;2023-04-20T04:39:52;101812.63;;;7.08;100.00
16120;BME280;12670;53.502;10.252;2023-04-20T04:42:57;101818.06;;;6.90;100.00
16120;BME280;12670;53.502;10.252;2023-04-20T04:46:05;101815.16;;;7.19;100.00
16120;BME280;12670;53.502;10.252;2023-04-20T04:49:08;101829.13;;;7.30;100.00
16120;BME280;12670;53.502;10.252;2023-04-20T04:52:11;101828.69;;;6.84;100.00
16120;BME280;12670;53.502;10.252;2023-04-20T04:55:15;101823.22;;;7.05;100.00
16120;BME280;12670;53.502;10.252;2023-04-20T04:58:19;101819.50;;;7.25;100.00
16120;BME280;12670;53.502;10.252;2023-04-20T05:01:21;101810.03;;;7.05;100.00
16120;BME280;12670;53.502;10.252;2023-04-20T05:04:24;101828.69;;;6.84;100.00
16120;BME280;12670;53.502;10.252;2023-04-20T05:07:27;101823.22;;;7.02;100.00
16120;BME280;12670;53.502;10.252;2023-04-20T05:10:29;101826.69;;;7.09;100.00
16120;BME280;12670;53.502;10.252;2023-04-20T05:13:33;101829.16;;;7.26;100.00
16120;BME280;12670;53.502;10.252;2023-04-20T05:16:36;101827.59;;;7.08;100.00
16120;BME280;12670;53.502;10.252;2023-04-20T05:19:39;101839.97;;;7.00;100.00
16120;BME280;12670;53.502;10.252;2023-04-20T05:22:42;101830.22;;;7.08;100.00
16120;BME280;12670;53.502;10.252;2023-04-20T05:25:45;101830.25;;;7.06;100.00
16120;BME280;12670;53.502;10.252;2023-04-20T05:28:49;101835.31;;;7.25;100.00
16120;BME280;12670;53.502;10.252;2023-04-20T05:31:51;101834.53;;;7.16;100.00
16120;BME280;12670;53.502;10.252;2023-04-20T05:34:54;101827.78;;;6.88;100.00
16120;BME280;12670;53.502;10.252;2023-04-20T05:37:59;101831.13;;;7.05;100.00
16120;BME280;12670;53.502;10.252;2023-04-20T05:41:06;101835.38;;;7.20;100.00
16120;BME280;12670;53.502;10.252;2023-04-20T05:44:10;101849.34;;;7.30;100.00
16120;BME280;12670;53.502;10.252;2023-04-20T05:47:13;101856.56;;;7.12;100.00
16120;BME280;12670;53.502;10.252;2023-04-20T05:50:16;101854.78;;;7.14;100.00
16120;BME280;12670;53.502;10.252;2023-04-20T05:53:19;101853.16;;;7.01;100.00
16120;BME280;12670;53.502;10.252;2023-04-20T05:56:22;101848.84;;;6.91;100.00
16120;BME280;12670;53.502;10.252;2023-04-20T05:59:26;101862.97;;;6.85;100.00
16120;BME280;12670;53.502;10.252;2023-04-20T06:02:28;101853.94;;;7.12;100.00
16120;BME280;12670;53.502;10.252;2023-04-20T06:05:31;101848.75;;;7.02;100.00
16120;BME280;12670;53.502;10.252;2023-04-20T06:08:34;101856.72;;;6.95;100.00
16120;BME280;12670;53.502;10.252;2023-04-20T06:11:37;101840.53;;;7.31;100.00
16120;BME280;12670;53.502;10.252;2023-04-20T06:14:41;101843.88;;;7.48;100.00
16120;BME280;12670;53.502;10.252;2023-04-20T06:17:44;101843.28;;;7.20;100.00
16120;BME280;12670;53.502;10.252;2023-04-20T06:20:47;101847.56;;;7.32;100.00
16120;BME280;12670;53.502;10.252;2023-04-20T06:23:49;101858.03;;;7.41;100.00
16120;BME280;12670;53.502;10.252;2023-04-20T06:26:52;101854.47;;;7.45;100.00
16120;BME280;12670;53.502;10.252;2023-04-20T06:29:56;101845.53;;;7.55;100.00
16120;BME280;12670;53.502;10.252;2023-04-20T06:32:59;101840.47;;;7.40;100.00
16120;BME280;12670;53.502;10.252;2023-04-20T06:36:05;101846.25;;;7.71;100.00
16120;BME280;12670;53.502;10.252;2023-04-20T06:39:08;101847.97;;;7.73;100.00
16120;BME280;12670;53.502;10.252;2023-04-20T06:42:11;101851.06;;;7.35;100.00
16120;BME280;12670;53.502;10.252;2023-04-20T06:45:17;101857.06;;;7.49;100.00
16120;BME280;12670;53.502;10.252;2023-04-20T06:48:20;101856.91;;;7.62;100.00
16120;BME280;12670;53.502;10.252;2023-04-20T06:51:32;101861.31;;;7.63;100.00
16120;BME280;12670;53.502;10.252;2023-04-20T06:54:35;101861.22;;;7.70;100.00
16120;BME280;12670;53.502;10.252;2023-04-20T06:57:37;101870.34;;;7.42;100.00
16120;BME280;12670;53.502;10.252;2023-04-20T07:00:41;101868.59;;;7.41;100.00
16120;BME280;12670;53.502;10.252;2023-04-20T07:03:44;101871.03;;;7.62;100.00
16120;BME280;12670;53.502;10.252;2023-04-20T07:06:47;101874.47;;;7.66;100.00
16120;BME280;12670;53.502;10.252;2023-04-20T07:09:54;101877.00;;;7.77;100.00
16120;BME280;12670;53.502;10.252;2023-04-20T07:12:57;101871.78;;;7.70;100.00
16120;BME280;12670;53.502;10.252;2023-04-20T07:16:01;101878.88;;;7.65;100.00
16120;BME280;12670;53.502;10.252;2023-04-20T07:19:04;101877.78;;;7.83;100.00
16120;BME280;12670;53.502;10.252;2023-04-20T07:22:06;101872.81;;;7.56;100.00
16120;BME280;12670;53.502;10.252;2023-04-20T07:25:09;101879.69;;;7.72;100.00
16120;BME280;12670;53.502;10.252;2023-04-20T07:28:12;101880.47;;;7.79;100.00
16120;BME280;12670;53.502;10.252;2023-04-20T07:31:16;101868.16;;;7.78;100.00
16120;BME280;12670;53.502;10.252;2023-04-20T07:34:19;101880.47;;;7.79;100.00
16120;BME280;12670;53.502;10.252;2023-04-20T07:37:22;101878.59;;;7.90;100.00
16120;BME280;12670;53.502;10.252;2023-04-20T07:40:27;101884.41;;;8.15;100.00
16120;BME280;12670;53.502;10.252;2023-04-20T07:43:30;101889.09;;;7.97;100.00
16120;BME280;12670;53.502;10.252;2023-04-20T07:46:34;101888.25;;;7.91;100.00
16120;BME280;12670;53.502;10.252;2023-04-20T07:49:37;101896.28;;;7.83;100.00
16120;BME280;12670;53.502;10.252;2023-04-20T07:52:41;101909.66;;;7.68;100.00
16120;BME280;12670;53.502;10.252;2023-04-20T07:55:44;101905.22;;;7.71;100.00
16120;BME280;12670;53.502;10.252;2023-04-20T07:58:49;101906.09;;;7.75;100.00
16120;BME280;12670;53.502;10.252;2023-04-20T08:01:57;101903.56;;;7.64;100.00
16120;BME280;12670;53.502;10.252;2023-04-20T08:05:01;101907.69;;;7.85;100.00
16120;BME280;12670;53.502;10.252;2023-04-20T08:08:05;101911.25;;;7.86;100.00
16120;BME280;12670;53.502;10.252;2023-04-20T08:11:08;101909.34;;;7.95;100.00
16120;BME280;12670;53.502;10.252;2023-04-20T08:14:10;101909.28;;;8.01;100.00
16120;BME280;12670;53.502;10.252;2023-04-20T08:17:15;101911.25;;;7.86;100.00
16120;BME280;12670;53.502;10.252;2023-04-20T08:20:17;101922.78;;;7.77;100.00
16120;BME280;12670;53.502;10.252;2023-04-20T08:23:20;101914.94;;;7.68;100.00
16120;BME280;12670;53.502;10.252;2023-04-20T08:26:28;101920.16;;;7.75;100.00
16120;BME280;12670;53.502;10.252;2023-04-20T08:29:30;101920.03;;;7.88;100.00
16120;BME280;12670;53.502;10.252;2023-04-20T08:32:34;101909.28;;;8.01;100.00
16120;BME280;12670;53.502;10.252;2023-04-20T08:35:37;101906.84;;;7.86;100.00
16120;BME280;12670;53.502;10.252;2023-04-20T08:38:40;101913.91;;;7.86;100.00
16120;BME280;12670;53.502;10.252;2023-04-20T08:41:42;101924.16;;;8.10;100.00
16120;BME280;12670;53.502;10.252;2023-04-20T08:44:45;101922.19;;;8.24;100.00
16120;BME280;12670;53.502;10.252;2023-04-20T08:47:49;101919.34;;;8.44;100.00
16120;BME280;12670;53.502;10.252;2023-04-20T08:50:53;101916.75;;;8.38;100.00
16120;BME280;12670;53.502;10.252;2023-04-20T08:53:58;101914.66;;;8.60;100.00
16120;BME280;12670;53.502;10.252;2023-04-20T08:57:05;101914.72;;;8.57;100.00
16120;BME280;12670;53.502;10.252;2023-04-20T09:00:09;101917.41;;;8.54;100.00
16120;BME280;12670;53.502;10.252;2023-04-20T09:03:15;101925.41;;;8.51;100.00
16120;BME280;12670;53.502;10.252;2023-04-20T09:06:19;101923.97;;;8.87;100.00
16120;BME280;12670;53.502;10.252;2023-04-20T09:09:23;101928.22;;;8.96;100.00
16120;BME280;12670;53.502;10.252;2023-04-20T09:12:27;101919.66;;;8.81;100.00
16120;BME280;12670;53.502;10.252;2023-04-20T09:15:30;101930.13;;;8.88;100.00
16120;BME280;12670;53.502;10.252;2023-04-20T09:18:35;101931.97;;;8.82;100.00
16120;BME280;12670;53.502;10.252;2023-04-20T09:21:47;101937.06;;;8.95;100.00
16120;BME280;12670;53.502;10.252;2023-04-20T09:24:50;101950.34;;;8.93;100.00
16120;BME280;12670;53.502;10.252;2023-04-20T09:27:56;101952.47;;;8.70;100.00
16120;BME280;12670;53.502;10.252;2023-04-20T09:30:59;101950.50;;;8.82;100.00
16120;BME280;12670;53.502;10.252;2023-04-20T09:34:03;101945.88;;;8.95;100.00
16120;BME280;12670;53.502;10.252;2023-04-20T09:37:08;101938.72;;;9.02;100.00
16120;BME280;12670;53.502;10.252;2023-04-20T09:40:11;101927.16;;;9.09;100.00
16120;BME280;12670;53.502;10.252;2023-04-20T09:43:18;101919.88;;;9.22;100.00
16120;BME280;12670;53.502;10.252;2023-04-20T09:46:21;101924.75;;;9.45;100.00
16120;BME280;12670;53.502;10.252;2023-04-20T09:49:26;101923.22;;;9.78;100.00
16120;BME280;12670;53.502;10.252;2023-04-20T09:52:29;101921.72;;;10.09;100.00
16120;BME280;12670;53.502;10.252;2023-04-20T09:55:32;101920.91;;;10.06;100.00
16120;BME280;12670;53.502;10.252;2023-04-20T09:58:35;101936.41;;;10.26;100.00
16120;BME280;12670;53.502;10.252;2023-04-20T10:01:39;101940.53;;;9.96;100.00
16120;BME280;12670;53.502;10.252;2023-04-20T10:04:52;101940.88;;;9.80;100.00
16120;BME280;12670;53.502;10.252;2023-04-20T10:07:58;101939.66;;;9.97;100.00
16120;BME280;12670;53.502;10.252;2023-04-20T10:11:01;101944.34;;;9.82;100.00
16120;BME280;12670;53.502;10.252;2023-04-20T10:14:14;101945.97;;;9.91;100.00
16120;BME280;12670;53.502;10.252;2023-04-20T10:17:29;101944.66;;;9.66;100.00
16120;BME280;12670;53.502;10.252;2023-04-20T10:20:33;101946.03;;;9.86;100.00
16120;BME280;12670;53.502;10.252;2023-04-20T10:23:46;101946.72;;;9.98;100.00
16120;BME280;12670;53.502;10.252;2023-04-20T10:26:49;101946.09;;;9.83;100.00
16120;BME280;12670;53.502;10.252;2023-04-20T10:29:52;101943.81;;;10.10;100.00
16120;BME280;12670;53.502;10.252;2023-04-20T10:33:02;101944.38;;;10.26;100.00
16120;BME280;12670;53.502;10.252;2023-04-20T10:36:06;101942.53;;;10.29;100.00
16120;BME280;12670;53.502;10.252;2023-04-20T10:39:14;101944.19;;;10.35;100.00
16120;BME280;12670;53.502;10.252;2023-04-20T10:42:20;101943.00;;;10.50;100.00
16120;BME280;12670;53.502;10.252;2023-04-20T10:45:32;101938.75;;;10.41;100.00
16120;BME280;12670;53.502;10.252;2023-04-20T10:48:36;101940.94;;;10.61;100.00
16120;BME280;12670;53.502;10.252;2023-04-20T10:51:47;101935.13;;;10.82;100.00
16120;BME280;12670;53.502;10.252;2023-04-20T10:54:50;101925.47;;;10.80;100.00
16120;BME280;12670;53.502;10.252;2023-04-20T10:57:52;101932.34;;;10.88;100.00
16120;BME280;12670;53.502;10.252;2023-04-20T11:01:00;101927.66;;;10.61;100.00
16120;BME280;12670;53.502;10.252;2023-04-20T11:04:02;101924.78;;;10.31;100.00
16120;BME280;12670;53.502;10.252;2023-04-20T11:07:08;101923.56;;;10.48;100.00
16120;BME280;12670;53.502;10.252;2023-04-20T11:10:11;101931.03;;;10.69;100.00
16120;BME280;12670;53.502;10.252;2023-04-20T11:13:20;101934.59;;;10.68;100.00
16120;BME280;12670;53.502;10.252;2023-04-20T11:16:25;101930.41;;;10.58;100.00
16120;BME280;12670;53.502;10.252;2023-04-20T11:19:45;101926.59;;;10.70;100.00
16120;BME280;12670;53.502;10.252;2023-04-20T11:22:55;101929.22;;;10.32;100.00
16120;BME280;12670;53.502;10.252;2023-04-20T11:25:58;101925.34;;;10.47;100.00
16120;BME280;12670;53.502;10.252;2023-04-20T11:29:01;101926.69;;;10.26;100.00
16120;BME280;12670;53.502;10.252;2023-04-20T11:32:05;101928.44;;;9.82;100.00
16120;BME280;12670;53.502;10.252;2023-04-20T11:35:09;101932.16;;;10.17;100.00
16120;BME280;12670;53.502;10.252;2023-04-20T11:38:14;101929.47;;;10.20;100.00
16120;BME280;12670;53.502;10.252;2023-04-20T11:41:19;101928.84;;;10.06;100.00
16120;BME280;12670;53.502;10.252;2023-04-20T11:44:22;101934.03;;;10.12;100.00
16120;BME280;12670;53.502;10.252;2023-04-20T11:47:24;101934.97;;;10.08;100.00
16120;BME280;12670;53.502;10.252;2023-04-20T11:50:27;101930.88;;;10.38;100.00
16120;BME280;12670;53.502;10.252;2023-04-20T11:53:32;101927.03;;;10.08;100.00
16120;BME280;12670;53.502;10.252;2023-04-20T11:56:35;101926.66;;;10.28;100.00
16120;BME280;12670;53.502;10.252;2023-04-20T11:59:38;101925.47;;;9.99;100.00
16120;BME280;12670;53.502;10.252;2023-04-20T12:02:43;101937.56;;;10.12;100.00
16120;BME280;12670;53.502;10.252;2023-04-20T12:05:46;101933.97;;;10.13;100.00
16120;BME280;12670;53.502;10.252;2023-04-20T12:08:50;101937.19;;;10.32;100.00
16120;BME280;12670;53.502;10.252;2023-04-20T12:11:53;101930.47;;;10.13;100.00
16120;BME280;12670;53.502;10.252;2023-04-20T12:14:55;101937.38;;;10.22;100.00
16120;BME280;12670;53.502;10.252;2023-04-20T12:17:58;101932.97;;;10.19;100.00
16120;BME280;12670;53.502;10.252;2023-04-20T12:21:01;101942.13;;;10.06;100.00
16120;BME280;12670;53.502;10.252;2023-04-20T12:24:05;101950.84;;;10.11;100.00
16120;BME280;12670;53.502;10.252;2023-04-20T12:27:08;101949.16;;;10.07;100.00
16120;BME280;12670;53.502;10.252;2023-04-20T12:30:12;101958.16;;;10.00;100.00
16120;BME280;12670;53.502;10.252;2023-04-20T12:33:15;101946.28;;;10.18;100.00
16120;BME280;12670;53.502;10.252;2023-04-20T12:36:17;101951.59;;;10.18;100.00
16120;BME280;12670;53.502;10.252;2023-04-20T12:39:21;101938.69;;;10.43;100.00
16120;BME280;12670;53.502;10.252;2023-04-20T12:42:25;101934.66;;;10.26;100.00
16120;BME280;12670;53.502;10.252;2023-04-20T12:45:28;101940.13;;;10.59;100.00
16120;BME280;12670;53.502;10.252;2023-04-20T12:48:31;101938.00;;;10.34;100.00
16120;BME280;12670;53.502;10.252;2023-04-20T12:51:34;101927.31;;;10.37;100.00
16120;BME280;12670;53.502;10.252;2023-04-20T12:54:38;101929.63;;;10.53;100.00
16120;BME280;12670;53.502;10.252;2023-04-20T12:57:44;101916.03;;;10.68;100.00
16120;BME280;12670;53.502;10.252;2023-04-20T13:00:46;101920.34;;;11.09;100.00
16120;BME280;12670;53.502;10.252;2023-04-20T13:03:49;101917.66;;;10.74;100.00
16120;BME280;12670;53.502;10.252;2023-04-20T13:06:52;101911.16;;;10.50;100.00
16120;BME280;12670;53.502;10.252;2023-04-20T13:09:57;101915.91;;;10.73;100.00
16120;BME280;12670;53.502;10.252;2023-04-20T13:13:01;101910.69;;;11.05;100.00
16120;BME280;12670;53.502;10.252;2023-04-20T13:16:04;101905.59;;;11.30;100.00
16120;BME280;12670;53.502;10.252;2023-04-20T13:19:07;101905.25;;;11.10;100.00
16120;BME280;12670;53.502;10.252;2023-04-20T13:22:10;101911.03;;;11.27;100.00
16120;BME280;12670;53.502;10.252;2023-04-20T13:25:19;101898.72;;;11.23;100.00
16120;BME280;12670;53.502;10.252;2023-04-20T13:28:23;101891.19;;;11.40;100.00
16120;BME280;12670;53.502;10.252;2023-04-20T13:31:25;101888.47;;;11.08;100.00
16120;BME280;12670;53.502;10.252;2023-04-20T13:34:28;101892.25;;;10.99;100.00
16120;BME280;12670;53.502;10.252;2023-04-20T13:37:31;101882.22;;;11.10;100.00
16120;BME280;12670;53.502;10.252;2023-04-20T13:40:35;101879.19;;;10.91;100.00
16120;BME280;12670;53.502;10.252;2023-04-20T13:43:38;101881.53;;;11.04;100.00
16120;BME280;12670;53.502;10.252;2023-04-20T13:46:41;101872.84;;;10.95;100.00
16120;BME280;12670;53.502;10.252;2023-04-20T13:49:44;101866.47;;;10.68;100.00
16120;BME280;12670;53.502;10.252;2023-04-20T13:52:48;101868.41;;;10.62;100.00
16120;BME280;12670;53.502;10.252;2023-04-20T13:55:52;101860.28;;;11.04;100.00
16120;BME280;12670;53.502;10.252;2023-04-20T13:58:54;101849.66;;;11.02;100.00
16120;BME280;12670;53.502;10.252;2023-04-20T14:01:57;101848.06;;;10.97;100.00
16120;BME280;12670;53.502;10.252;2023-04-20T14:05:00;101853.44;;;10.93;100.00
16120;BME280;12670;53.502;10.252;2023-04-20T14:08:04;101844.09;;;11.13;100.00
16120;BME280;12670;53.502;10.252;2023-04-20T14:11:09;101834.63;;;11.35;100.00
16120;BME280;12670;53.502;10.252;2023-04-20T14:14:12;101837.22;;;11.38;100.00
16120;BME280;12670;53.502;10.252;2023-04-20T14:17:14;101839.53;;;11.51;100.00
16120;BME280;12670;53.502;10.252;2023-04-20T14:20:17;101846.16;;;11.67;100.00
16120;BME280;12670;53.502;10.252;2023-04-20T14:23:20;101832.88;;;11.65;100.00
16120;BME280;12670;53.502;10.252;2023-04-20T14:26:24;101837.09;;;11.72;100.00
16120;BME280;12670;53.502;10.252;2023-04-20T14:29:27;101828.78;;;11.55;100.00
16120;BME280;12670;53.502;10.252;2023-04-20T14:32:30;101829.53;;;11.59;100.00
16120;BME280;12670;53.502;10.252;2023-04-20T14:35:33;101828.38;;;11.69;100.00
16120;BME280;12670;53.502;10.252;2023-04-20T14:38:36;101820.34;;;11.70;100.00
16120;BME280;12670;53.502;10.252;2023-04-20T14:41:40;101822.53;;;11.87;100.00
16120;BME280;12670;53.502;10.252;2023-04-20T14:44:43;101815.38;;;11.89;100.00
16120;BME280;12670;53.502;10.252;2023-04-20T14:47:45;101818.03;;;11.89;100.00
16120;BME280;12670;53.502;10.252;2023-04-20T14:50:48;101814.47;;;11.59;100.00
16120;BME280;12670;53.502;10.252;2023-04-20T14:53:51;101806.81;;;11.78;100.00
16120;BME280;12670;53.502;10.252;2023-04-20T14:56:55;101811.34;;;12.06;100.00
16120;BME280;12670;53.502;10.252;2023-04-20T14:59:57;101809.13;;;12.20;100.00
16120;BME280;12670;53.502;10.252;2023-04-20T15:03:00;101804.75;;;12.17;100.00
16120;BME280;12670;53.502;10.252;2023-04-20T15:06:03;101797.13;;;12.35;100.00
16120;BME280;12670;53.502;10.252;2023-04-20T15:09:06;101792.66;;;12.35;100.00
16120;BME280;12670;53.502;10.252;2023-04-20T15:12:10;101792.47;;;12.41;100.00
16120;BME280;12670;53.502;10.252;2023-04-20T15:15:13;101786.31;;;12.39;100.00
16120;BME280;12670;53.502;10.252;2023-04-20T15:18:17;101773.31;;;12.30;100.00
16120;BME280;12670;53.502;10.252;2023-04-20T15:21:20;101776.00;;;12.57;100.00
16120;BME280;12670;53.502;10.252;2023-04-20T15:24:23;101778.50;;;12.61;100.00
16120;BME280;12670;53.502;10.252;2023-04-20T15:27:27;101773.94;;;12.38;100.00
16120;BME280;12670;53.502;10.252;2023-04-20T15:30:30;101756.44;;;12.58;100.00
16120;BME280;12670;53.502;10.252;2023-04-20T15:33:33;101757.22;;;12.60;100.00
16120;BME280;12670;53.502;10.252;2023-04-20T15:36:36;101751.31;;;12.51;100.00
16120;BME280;12670;53.502;10.252;2023-04-20T15:39:38;101746.34;;;12.67;100.00
16120;BME280;12670;53.502;10.252;2023-04-20T15:42:43;101737.50;;;12.67;100.00
16120;BME280;12670;53.502;10.252;2023-04-20T15:45:45;101725.69;;;12.74;100.00